createdAt,value
2023-04-08T00:01:40.966Z,27.65
2023-04-08T00:06:34.129Z,13.90
2023-04-08T00:09:00.544Z,9.10
2023-04-08T00:13:53.188Z,9.88
2023-04-08T00:16:19.564Z,10.52
2023-04-08T00:21:12.160Z,9.48
2023-04-08T00:23:38.488Z,17.75
2023-04-08T00:26:04.834Z,17.27
2023-04-08T00:28:31.158Z,11.35
2023-04-08T00:30:57.556Z,11.98
2023-04-08T00:35:50.288Z,10.18
2023-04-08T00:40:42.957Z,11.52
2023-04-08T00:43:09.355Z,8.93
2023-04-08T00:45:35.764Z,10.60
2023-04-08T00:50:29.043Z,10.07
2023-04-08T00:55:21.665Z,15.30
2023-04-08T00:57:48.634Z,9.85
2023-04-08T01:00:15.903Z,12.32
2023-04-08T01:03:13.623Z,9.73
2023-04-08T01:05:59.949Z,15.45
2023-04-08T01:08:29.408Z,11.95
2023-04-08T01:11:00.873Z,12.60
2023-04-08T01:13:31.284Z,9.18
2023-04-08T01:15:59.251Z,12.07
2023-04-08T01:18:31.050Z,11.55
2023-04-08T01:20:59.074Z,13.43
2023-04-08T01:23:38.969Z,10.80
2023-04-08T01:26:05.331Z,10.88
2023-04-08T01:28:33.690Z,13.00
2023-04-08T01:31:02.066Z,12.13
2023-04-08T01:33:29.341Z,9.27
2023-04-08T01:35:57.611Z,11.30
2023-04-08T01:38:25.610Z,21.48
2023-04-08T01:40:54.477Z,11.80
2023-04-08T01:43:21.284Z,10.07
2023-04-08T01:45:49.352Z,9.25
2023-04-08T01:48:15.912Z,29.90
2023-04-08T01:50:43.851Z,11.80
2023-04-08T01:53:11.765Z,12.48
2023-04-08T01:55:43.157Z,9.57
2023-04-08T01:58:17.090Z,8.98
2023-04-08T02:00:44.267Z,8.82
2023-04-08T02:03:12.778Z,23.63
2023-04-08T02:05:40.093Z,11.00
2023-04-08T02:08:06.593Z,12.05
2023-04-08T02:12:59.669Z,23.48
2023-04-08T02:17:56.356Z,9.85
2023-04-08T02:20:28.598Z,10.05
2023-04-08T02:23:03.852Z,16.20
2023-04-08T02:25:31.865Z,15.93
2023-04-08T02:28:01.883Z,13.30
2023-04-08T02:30:29.698Z,16.38
2023-04-08T02:32:58.077Z,158.57
2023-04-08T02:35:24.795Z,23.35
2023-04-08T02:37:51.310Z,11.65
2023-04-08T02:42:57.516Z,32.50
2023-04-08T02:45:29.944Z,41.60
2023-04-08T02:50:22.676Z,18.20
2023-04-08T02:52:48.989Z,21.58
2023-04-08T02:55:15.358Z,17.90
2023-04-08T02:57:42.433Z,20.60
2023-04-08T03:00:09.684Z,25.77
2023-04-08T03:02:36.285Z,27.50
2023-04-08T03:05:02.880Z,24.33
2023-04-08T03:07:29.277Z,19.65
2023-04-08T03:09:55.752Z,27.17
2023-04-08T03:14:49.716Z,24.70
2023-04-08T03:17:16.962Z,20.48
2023-04-08T03:19:43.318Z,26.35
2023-04-08T03:22:09.717Z,24.20
2023-04-08T03:27:03.434Z,17.33
2023-04-08T03:29:29.843Z,21.95
2023-04-08T03:31:56.478Z,17.42
2023-04-08T03:36:49.224Z,23.83
2023-04-08T03:39:15.618Z,19.52
2023-04-08T03:41:41.976Z,19.08
2023-04-08T03:44:08.369Z,18.08
2023-04-08T03:46:34.753Z,20.35
2023-04-08T03:49:01.198Z,18.83
2023-04-08T03:53:53.885Z,17.38
2023-04-08T03:56:20.300Z,19.35
2023-04-08T04:01:13.023Z,17.15
2023-04-08T04:03:39.478Z,19.70
2023-04-08T04:06:05.980Z,17.40
2023-04-08T04:08:32.313Z,18.05
2023-04-08T04:10:59.502Z,20.23
2023-04-08T04:13:25.849Z,17.63
2023-04-08T04:15:52.337Z,21.48
2023-04-08T04:20:45.055Z,19.33
2023-04-08T04:23:11.366Z,20.48
2023-04-08T04:25:41.309Z,19.23
2023-04-08T04:28:07.698Z,19.75
2023-04-08T04:30:36.968Z,19.63
2023-04-08T04:33:03.502Z,20.25
2023-04-08T04:35:30.021Z,19.38
2023-04-08T04:40:22.731Z,17.23
2023-04-08T04:42:49.624Z,18.20
2023-04-08T04:45:16.081Z,20.15
2023-04-08T04:47:42.476Z,21.17
2023-04-08T04:50:09.230Z,20.10
2023-04-08T04:52:36.501Z,22.55
2023-04-08T04:55:02.882Z,18.27
2023-04-08T04:57:29.250Z,20.92
2023-04-08T04:59:55.571Z,21.45
2023-04-08T05:02:22.076Z,18.67
2023-04-08T05:04:48.545Z,21.25
2023-04-08T05:09:41.123Z,15.38
2023-04-08T05:12:07.489Z,19.67
2023-04-08T05:14:33.873Z,20.27
2023-04-08T05:17:00.237Z,19.60
2023-04-08T05:19:26.610Z,17.33
2023-04-08T05:21:52.962Z,19.25
2023-04-08T05:24:19.324Z,18.92
2023-04-08T05:26:45.657Z,16.88
2023-04-08T05:29:11.965Z,15.23
2023-04-08T05:31:38.346Z,17.65
2023-04-08T05:34:04.681Z,16.77
2023-04-08T05:36:31.075Z,17.42
2023-04-08T05:38:57.402Z,20.30
2023-04-08T05:41:23.713Z,20.98
2023-04-08T05:43:50.087Z,16.95
2023-04-08T05:46:16.446Z,15.45
2023-04-08T05:48:42.853Z,15.65
2023-04-08T05:51:14.104Z,15.50
2023-04-08T05:53:41.550Z,18.92
2023-04-08T05:56:08.101Z,15.95
2023-04-08T05:58:34.585Z,18.27
2023-04-08T06:03:27.458Z,14.82
2023-04-08T06:05:54.055Z,17.95
2023-04-08T06:10:50.543Z,16.50
2023-04-08T06:13:16.890Z,13.52
2023-04-08T06:15:43.290Z,17.10
2023-04-08T06:20:36.106Z,14.13
2023-04-08T06:23:02.436Z,13.60
2023-04-08T06:25:28.737Z,16.80
2023-04-08T06:27:55.089Z,16.77
2023-04-08T06:30:21.512Z,13.98
2023-04-08T06:35:14.464Z,17.20
2023-04-08T06:37:40.773Z,16.33
2023-04-08T06:40:07.657Z,14.60
2023-04-08T06:42:34.004Z,15.45
2023-04-08T06:45:00.304Z,18.73
2023-04-08T06:47:26.656Z,14.63
2023-04-08T06:52:19.340Z,14.85
2023-04-08T06:57:12.237Z,19.40
2023-04-08T06:59:38.625Z,16.52
2023-04-08T07:04:31.423Z,18.30
2023-04-08T07:06:57.732Z,17.77
2023-04-08T07:09:24.055Z,17.55
2023-04-08T07:11:50.407Z,18.15
2023-04-08T07:16:43.087Z,20.13
2023-04-08T07:21:35.716Z,18.73
2023-04-08T07:26:28.408Z,16.70
2023-04-08T07:28:54.811Z,18.30
2023-04-08T07:33:47.446Z,15.70
2023-04-08T07:38:40.849Z,18.55
2023-04-08T07:41:07.333Z,18.10
2023-04-08T07:43:34.086Z,16.42
2023-04-08T07:46:01.546Z,17.27
2023-04-08T07:48:28.275Z,18.33
2023-04-08T07:51:09.428Z,17.23
2023-04-08T07:53:37.305Z,16.75
2023-04-08T07:56:03.856Z,18.55
2023-04-08T07:58:30.472Z,19.60
2023-04-08T08:00:57.116Z,16.63
2023-04-08T08:03:23.560Z,18.58
2023-04-08T08:05:49.977Z,17.38
2023-04-08T08:10:42.605Z,17.77
2023-04-08T08:13:09.016Z,18.00
2023-04-08T08:15:35.430Z,16.73
2023-04-08T08:18:01.815Z,18.17
2023-04-08T08:20:28.159Z,15.70
2023-04-08T08:22:57.750Z,17.98
2023-04-08T08:25:26.122Z,17.25
2023-04-08T08:27:52.840Z,19.08
2023-04-08T08:30:19.396Z,18.35
2023-04-08T08:32:45.826Z,16.70
2023-04-08T08:35:12.295Z,14.65
2023-04-08T08:37:38.757Z,15.80
2023-04-08T08:40:05.732Z,15.20
2023-04-08T08:42:34.288Z,13.55
2023-04-08T08:45:04.304Z,15.82
2023-04-08T08:47:31.188Z,14.77
2023-04-08T08:49:57.870Z,15.80
2023-04-08T08:52:24.482Z,15.45
2023-04-08T08:55:00.272Z,14.70
2023-04-08T08:57:26.838Z,14.23
2023-04-08T08:59:53.322Z,20.05
2023-04-08T09:02:29.888Z,14.95
2023-04-08T09:04:58.583Z,15.40
2023-04-08T09:07:26.497Z,17.83
2023-04-08T09:09:54.087Z,14.40
2023-04-08T09:12:20.707Z,15.07
2023-04-08T09:14:47.103Z,16.52
2023-04-08T09:17:13.771Z,14.70
2023-04-08T09:19:43.447Z,15.70
2023-04-08T09:22:11.676Z,13.65
2023-04-08T09:24:38.209Z,16.42
2023-04-08T09:27:05.532Z,15.95
2023-04-08T09:29:34.778Z,16.65
2023-04-08T09:32:03.186Z,15.77
2023-04-08T09:34:29.981Z,13.65
2023-04-08T09:36:56.525Z,14.30
2023-04-08T09:39:23.085Z,14.07
2023-04-08T09:41:50.750Z,13.57
2023-04-08T09:44:19.017Z,14.95
2023-04-08T09:46:51.740Z,14.27
2023-04-08T09:49:48.493Z,13.13
2023-04-08T09:52:24.319Z,12.27
2023-04-08T09:55:04.754Z,15.35
2023-04-08T09:57:40.913Z,12.98
2023-04-08T10:00:15.256Z,12.63
2023-04-08T10:03:21.758Z,13.15
2023-04-08T10:05:49.259Z,13.30
2023-04-08T10:08:16.261Z,14.05
2023-04-08T10:10:43.192Z,12.18
2023-04-08T10:13:10.109Z,13.13
2023-04-08T10:15:37.030Z,12.75
2023-04-08T10:18:03.421Z,13.27
2023-04-08T10:20:35.542Z,14.65
2023-04-08T10:25:30.701Z,12.88
2023-04-08T10:27:57.425Z,11.38
2023-04-08T10:30:29.580Z,13.30
2023-04-08T10:32:57.490Z,10.98
2023-04-08T10:35:30.496Z,14.07
2023-04-08T10:37:59.790Z,12.65
2023-04-08T10:40:26.292Z,12.80
2023-04-08T10:42:56.946Z,13.82
2023-04-08T10:45:23.833Z,14.30
2023-04-08T10:47:50.421Z,15.23
2023-04-08T10:50:18.618Z,13.73
2023-04-08T10:52:52.326Z,13.85
2023-04-08T10:55:26.570Z,9.52
2023-04-08T10:57:58.119Z,13.00
2023-04-08T11:00:36.344Z,10.90
2023-04-08T11:05:30.525Z,10.93
2023-04-08T11:07:58.225Z,11.20
2023-04-08T11:10:25.434Z,12.82
2023-04-08T11:12:51.763Z,10.85
2023-04-08T11:15:18.196Z,13.55
2023-04-08T11:17:44.916Z,13.05
2023-04-08T11:20:11.443Z,11.40
2023-04-08T11:22:39.306Z,14.55
2023-04-08T11:25:07.958Z,15.45
2023-04-08T11:27:34.870Z,13.05
2023-04-08T11:30:02.057Z,17.92
2023-04-08T11:32:29.209Z,15.95
2023-04-08T11:34:55.607Z,16.42
2023-04-08T11:37:25.722Z,14.73
2023-04-08T11:39:54.858Z,17.33
2023-04-08T11:42:31.412Z,17.80
2023-04-08T11:44:58.162Z,17.38
2023-04-08T11:47:34.453Z,18.42
2023-04-08T11:50:01.188Z,17.80
2023-04-08T11:52:47.247Z,18.20
2023-04-08T11:55:24.164Z,17.08
2023-04-08T11:57:51.062Z,17.13
2023-04-08T12:00:17.632Z,23.17
2023-04-08T12:02:44.091Z,16.33
2023-04-08T12:05:10.636Z,21.30
2023-04-08T12:07:37.253Z,19.63
2023-04-08T12:10:03.806Z,19.00
2023-04-08T12:12:30.130Z,20.25
2023-04-08T12:14:56.449Z,19.02
2023-04-08T12:17:22.864Z,15.55
2023-04-08T12:19:49.217Z,20.23
2023-04-08T12:22:15.553Z,19.52
2023-04-08T12:24:41.990Z,20.55
2023-04-08T12:27:08.320Z,20.65
2023-04-08T12:29:34.657Z,13.60
2023-04-08T12:32:01.144Z,20.15
2023-04-08T12:34:27.806Z,18.08
2023-04-08T12:36:54.174Z,19.75
2023-04-08T12:39:20.527Z,19.88
2023-04-08T12:41:46.885Z,18.00
2023-04-08T12:44:13.269Z,21.67
2023-04-08T12:46:39.688Z,18.40
2023-04-08T12:49:06.437Z,20.55
2023-04-08T12:51:33.269Z,18.95
2023-04-08T12:53:59.829Z,18.55
2023-04-08T12:56:26.137Z,20.08
2023-04-08T12:58:52.682Z,18.02
2023-04-08T13:01:19.235Z,20.60
2023-04-08T13:03:47.049Z,19.50
2023-04-08T13:06:13.592Z,21.48
2023-04-08T13:08:39.994Z,23.02
2023-04-08T13:11:07.519Z,17.10
2023-04-08T13:13:33.995Z,20.60
2023-04-08T13:16:00.647Z,21.17
2023-04-08T13:18:26.980Z,18.85
2023-04-08T13:20:53.520Z,19.17
2023-04-08T13:23:20.193Z,19.90
2023-04-08T13:25:46.734Z,17.90
2023-04-08T13:28:13.148Z,20.90
2023-04-08T13:30:39.557Z,21.13
2023-04-08T13:33:06.020Z,20.42
2023-04-08T13:35:32.419Z,18.88
2023-04-08T13:37:58.785Z,18.85
2023-04-08T13:40:25.232Z,22.38
2023-04-08T13:42:51.584Z,21.00
2023-04-08T13:45:17.967Z,22.20
2023-04-08T13:47:44.326Z,19.85
2023-04-08T13:50:10.835Z,22.00
2023-04-08T13:52:37.220Z,19.42
2023-04-08T13:55:03.839Z,20.20
2023-04-08T13:57:30.150Z,17.33
2023-04-08T13:59:56.458Z,17.38
2023-04-08T14:02:22.845Z,18.88
2023-04-08T14:04:49.257Z,19.05
2023-04-08T14:07:15.613Z,18.00
2023-04-08T14:09:42.025Z,19.55
2023-04-08T14:12:08.419Z,19.33
2023-04-08T14:14:34.749Z,18.00
2023-04-08T14:17:01.193Z,18.52
2023-04-08T14:19:27.606Z,18.52
2023-04-08T14:21:53.962Z,18.55
2023-04-08T14:24:20.338Z,18.42
2023-04-08T14:26:46.782Z,19.50
2023-04-08T14:29:13.132Z,17.38
2023-04-08T14:31:39.521Z,17.52
2023-04-08T14:34:05.863Z,16.48
2023-04-08T14:36:32.278Z,17.52
2023-04-08T14:38:58.843Z,18.38
2023-04-08T14:41:25.540Z,15.02
2023-04-08T14:43:52.128Z,17.17
2023-04-08T14:46:18.673Z,16.90
2023-04-08T14:48:45.047Z,16.80
2023-04-08T14:51:11.384Z,15.55
2023-04-08T14:53:37.736Z,15.57
2023-04-08T14:56:04.228Z,16.38
2023-04-08T14:58:30.550Z,16.15
2023-04-08T15:00:56.921Z,18.55
2023-04-08T15:03:23.412Z,16.88
2023-04-08T15:05:50.035Z,16.73
2023-04-08T15:08:16.439Z,18.60
2023-04-08T15:10:42.778Z,17.05
2023-04-08T15:13:09.227Z,17.20
2023-04-08T15:15:35.671Z,18.05
2023-04-08T15:18:02.142Z,18.85
2023-04-08T15:20:28.549Z,18.17
2023-04-08T15:22:54.850Z,20.35
2023-04-08T15:25:21.188Z,18.33
2023-04-08T15:27:47.799Z,19.23
2023-04-08T15:30:14.360Z,18.08
2023-04-08T15:32:40.822Z,18.27
2023-04-08T15:35:07.779Z,19.88
2023-04-08T15:37:34.120Z,16.67
2023-04-08T15:40:00.550Z,18.33
2023-04-08T15:42:26.949Z,18.33
2023-04-08T15:44:53.284Z,15.90
2023-04-08T15:47:19.588Z,16.55
2023-04-08T15:49:45.900Z,16.50
2023-04-08T15:52:12.304Z,17.70
2023-04-08T15:54:38.688Z,16.30
2023-04-08T15:57:05.095Z,17.75
2023-04-08T15:59:31.880Z,18.05
2023-04-08T16:01:58.639Z,17.95
2023-04-08T16:04:25.219Z,16.52
2023-04-08T16:06:51.625Z,21.33
2023-04-08T16:09:18.039Z,17.75
2023-04-08T16:11:44.863Z,17.60
2023-04-08T16:14:11.272Z,16.02
2023-04-08T16:16:37.635Z,16.95
2023-04-08T16:19:04.744Z,19.48
2023-04-08T16:21:31.547Z,17.85
2023-04-08T16:23:57.944Z,15.68
2023-04-08T16:26:24.351Z,18.05
2023-04-08T16:28:51.215Z,19.08
2023-04-08T16:31:18.798Z,17.90
2023-04-08T16:33:46.331Z,18.70
2023-04-08T16:36:12.767Z,17.55
2023-04-08T16:38:39.133Z,19.80
2023-04-08T16:41:05.685Z,16.55
2023-04-08T16:43:32.074Z,20.38
2023-04-08T16:45:58.482Z,19.33
2023-04-08T16:48:24.831Z,18.30
2023-04-08T16:50:51.158Z,17.52
2023-04-08T16:53:17.570Z,18.75
2023-04-08T16:55:43.882Z,17.40
2023-04-08T16:58:10.264Z,15.43
2023-04-08T17:00:36.751Z,19.92
2023-04-08T17:03:03.282Z,18.58
2023-04-08T17:05:29.806Z,17.58
2023-04-08T17:07:56.499Z,16.38
2023-04-08T17:10:23.398Z,18.70
2023-04-08T17:12:49.734Z,17.90
2023-04-08T17:15:16.106Z,18.10
2023-04-08T17:17:42.462Z,19.17
2023-04-08T17:20:09.378Z,19.17
2023-04-08T17:22:35.775Z,17.60
2023-04-08T17:25:02.375Z,19.63
2023-04-08T17:27:28.748Z,17.13
2023-04-08T17:29:55.117Z,18.73
2023-04-08T17:32:21.643Z,17.05
2023-04-08T17:34:48.017Z,19.02
2023-04-08T17:37:14.447Z,18.75
2023-04-08T17:39:41.064Z,17.92
2023-04-08T17:42:08.381Z,19.63
2023-04-08T17:44:34.994Z,20.35
2023-04-08T17:47:01.347Z,19.20
2023-04-08T17:49:27.696Z,19.38
2023-04-08T17:51:54.134Z,17.35
2023-04-08T17:54:20.617Z,20.00
2023-04-08T17:56:49.036Z,19.25
2023-04-08T17:59:16.146Z,17.30
2023-04-08T18:01:42.603Z,17.75
2023-04-08T18:04:09.216Z,18.60
2023-04-08T18:06:35.744Z,19.50
2023-04-08T18:09:02.110Z,17.92
2023-04-08T18:11:28.461Z,19.40
2023-04-08T18:13:54.813Z,18.38
2023-04-08T18:16:22.014Z,17.58
2023-04-08T18:18:48.766Z,20.13
2023-04-08T18:21:16.104Z,18.98
2023-04-08T18:23:42.458Z,17.92
2023-04-08T18:26:08.765Z,18.60
2023-04-08T18:28:35.096Z,18.38
2023-04-08T18:31:01.532Z,20.67
2023-04-08T18:33:27.929Z,20.85
2023-04-08T18:35:54.291Z,20.17
2023-04-08T18:38:20.659Z,20.73
2023-04-08T18:40:47.068Z,18.10
2023-04-08T18:43:13.602Z,19.92
2023-04-08T18:45:40.641Z,20.98
2023-04-08T18:48:08.404Z,21.38
2023-04-08T18:50:34.833Z,21.38
2023-04-08T18:53:01.173Z,23.15
2023-04-08T18:55:27.546Z,22.92
2023-04-08T18:57:53.936Z,21.98
2023-04-08T19:00:20.389Z,23.40
2023-04-08T19:02:46.877Z,25.17
2023-04-08T19:05:13.343Z,22.23
2023-04-08T19:07:39.763Z,21.88
2023-04-08T19:10:06.838Z,24.05
2023-04-08T19:12:33.179Z,23.83
2023-04-08T19:14:59.587Z,25.63
2023-04-08T19:17:26.010Z,20.17
2023-04-08T19:19:52.342Z,25.52
2023-04-08T19:22:18.677Z,23.25
2023-04-08T19:24:45.008Z,25.00
2023-04-08T19:27:11.475Z,26.00
2023-04-08T19:29:37.824Z,17.90
2023-04-08T19:32:04.219Z,23.73
2023-04-08T19:34:30.744Z,24.77
2023-04-08T19:36:57.063Z,24.20
2023-04-08T19:39:25.951Z,25.60
2023-04-08T19:41:53.510Z,22.65
2023-04-08T19:44:19.873Z,26.77
2023-04-08T19:46:46.425Z,24.73
2023-04-08T19:49:12.949Z,24.20
2023-04-08T19:51:39.388Z,25.85
2023-04-08T19:54:05.755Z,24.63
2023-04-08T19:56:32.127Z,26.70
2023-04-08T19:58:58.535Z,23.60
2023-04-08T20:01:25.953Z,28.27
2023-04-08T20:03:52.619Z,26.55
2023-04-08T20:06:19.740Z,27.70
2023-04-08T20:08:46.371Z,29.30
2023-04-08T20:11:12.871Z,25.63
2023-04-08T20:13:39.273Z,27.80
2023-04-08T20:16:06.215Z,26.27
2023-04-08T20:18:32.950Z,29.30
2023-04-08T20:20:59.325Z,28.40
2023-04-08T20:23:25.936Z,27.63
2023-04-08T20:25:52.295Z,29.58
2023-04-08T20:28:19.474Z,28.42
2023-04-08T20:30:45.852Z,31.40
2023-04-08T20:33:12.253Z,32.95
2023-04-08T20:35:39.753Z,30.17
2023-04-08T20:38:06.212Z,32.88
2023-04-08T20:40:32.628Z,32.75
2023-04-08T20:42:59.058Z,30.48
2023-04-08T20:45:25.600Z,30.70
2023-04-08T20:47:52.053Z,26.38
2023-04-08T20:50:18.543Z,25.45
2023-04-08T20:52:44.875Z,30.48
2023-04-08T20:55:11.311Z,33.75
2023-04-08T20:57:37.646Z,28.23
2023-04-08T21:00:04.368Z,32.03
2023-04-08T21:02:30.987Z,33.65
2023-04-08T21:04:57.400Z,32.97
2023-04-08T21:07:26.785Z,34.25
2023-04-08T21:09:53.136Z,32.20
2023-04-08T21:12:19.488Z,33.42
2023-04-08T21:14:45.838Z,35.45
2023-04-08T21:17:12.186Z,38.03
2023-04-08T21:19:38.603Z,32.47
2023-04-08T21:22:05.010Z,29.10
2023-04-08T21:24:31.340Z,35.72
2023-04-08T21:26:57.747Z,37.47
2023-04-08T21:29:24.217Z,37.90
2023-04-08T21:31:50.603Z,37.22
2023-04-08T21:34:16.995Z,36.10
2023-04-08T21:36:43.334Z,34.83
2023-04-08T21:39:09.699Z,36.22
2023-04-08T21:41:36.042Z,35.83
2023-04-08T21:44:02.422Z,35.35
2023-04-08T21:46:28.832Z,36.70
2023-04-08T21:48:55.144Z,37.50
2023-04-08T21:51:21.521Z,34.75
2023-04-08T21:53:47.923Z,39.25
2023-04-08T21:56:14.282Z,36.90
2023-04-08T21:58:40.640Z,40.20
2023-04-08T22:01:07.076Z,34.28
2023-04-08T22:03:33.587Z,37.78
2023-04-08T22:06:00.103Z,38.75
2023-04-08T22:08:26.463Z,40.08
2023-04-08T22:10:52.802Z,37.05
2023-04-08T22:13:19.195Z,37.22
2023-04-08T22:15:45.530Z,35.75
2023-04-08T22:18:11.913Z,38.75
2023-04-08T22:20:38.271Z,35.80
2023-04-08T22:23:04.610Z,37.90
2023-04-08T22:25:30.961Z,38.35
2023-04-08T22:27:57.410Z,36.65
2023-04-08T22:30:23.796Z,36.20
2023-04-08T22:32:50.237Z,36.58
2023-04-08T22:35:16.642Z,39.35
2023-04-08T22:37:42.969Z,40.97
2023-04-08T22:40:09.556Z,41.33
2023-04-08T22:42:35.921Z,40.60
2023-04-08T22:45:02.270Z,40.72
2023-04-08T22:47:28.623Z,38.92
2023-04-08T22:49:54.986Z,38.10
2023-04-08T22:52:21.350Z,42.95
2023-04-08T22:54:47.646Z,40.30
2023-04-08T22:57:14.083Z,38.35
2023-04-08T22:59:40.459Z,47.35
2023-04-08T23:02:06.894Z,47.80
2023-04-08T23:04:33.330Z,51.13
2023-04-08T23:06:59.664Z,44.20
2023-04-08T23:09:25.951Z,43.80
2023-04-08T23:11:52.305Z,45.95
2023-04-08T23:14:18.659Z,49.17
2023-04-08T23:16:45.008Z,50.38
2023-04-08T23:19:11.335Z,46.13
2023-04-08T23:21:37.742Z,47.47
2023-04-08T23:24:04.352Z,48.92
2023-04-08T23:26:30.697Z,53.03
2023-04-08T23:28:57.059Z,44.22
2023-04-08T23:31:23.502Z,45.38
2023-04-08T23:33:49.930Z,44.90
2023-04-08T23:36:16.323Z,51.53
2023-04-08T23:38:42.738Z,49.35
2023-04-08T23:41:09.114Z,49.25
2023-04-08T23:43:35.487Z,50.63
2023-04-08T23:46:02.002Z,45.85
2023-04-08T23:48:28.390Z,51.47
2023-04-08T23:50:55.205Z,49.85
2023-04-08T23:53:22.079Z,44.45
2023-04-08T23:55:48.473Z,46.22
2023-04-08T23:58:14.847Z,45.25
